createdAt,value
2023-01-09T00:00:35.909Z,5.36
2023-01-09T00:01:35.775Z,5.35
2023-01-09T00:02:35.815Z,5.30
2023-01-09T00:03:35.759Z,5.33
2023-01-09T00:04:35.732Z,5.32
2023-01-09T00:05:35.773Z,5.26
2023-01-09T00:06:35.724Z,5.25
2023-01-09T00:07:35.701Z,5.23
2023-01-09T00:08:35.686Z,5.30
2023-01-09T00:09:35.676Z,5.38
2023-01-09T00:10:35.711Z,5.39
2023-01-09T00:11:35.650Z,5.39
2023-01-09T00:12:35.647Z,5.38
2023-01-09T00:13:35.613Z,5.36
2023-01-09T00:14:35.624Z,5.38
2023-01-09T00:15:35.652Z,5.38
2023-01-09T00:16:35.654Z,5.33
2023-01-09T00:17:35.604Z,5.29
2023-01-09T00:18:35.597Z,5.23
2023-01-09T00:19:35.606Z,5.14
2023-01-09T00:20:35.627Z,5.15
2023-01-09T00:21:35.546Z,5.29
2023-01-09T00:22:35.530Z,5.30
2023-01-09T00:23:35.533Z,5.32
2023-01-09T00:24:35.520Z,5.48
2023-01-09T00:25:35.558Z,5.48
2023-01-09T00:26:35.517Z,5.47
2023-01-09T00:27:35.475Z,5.43
2023-01-09T00:28:35.471Z,5.39
2023-01-09T00:29:35.467Z,5.43
2023-01-09T00:30:35.495Z,5.36
2023-01-09T00:31:35.431Z,5.41
2023-01-09T00:32:35.425Z,5.39
2023-01-09T00:33:35.427Z,5.39
2023-01-09T00:34:35.407Z,5.38
2023-01-09T00:35:35.426Z,5.32
2023-01-09T00:36:35.394Z,5.41
2023-01-09T00:37:35.361Z,5.46
2023-01-09T00:38:35.357Z,5.50
2023-01-09T00:39:35.331Z,5.51
2023-01-09T00:40:35.362Z,5.54
2023-01-09T00:41:35.297Z,5.54
2023-01-09T00:42:35.305Z,5.48
2023-01-09T00:43:35.284Z,5.48
2023-01-09T00:44:35.265Z,5.46
2023-01-09T00:45:35.316Z,5.50
2023-01-09T00:46:35.254Z,5.61
2023-01-09T00:47:35.258Z,5.61
2023-01-09T00:48:35.226Z,5.66
2023-01-09T00:49:35.230Z,5.66
2023-01-09T00:50:35.279Z,5.69
2023-01-09T00:51:35.204Z,5.68
2023-01-09T00:52:35.216Z,5.68
2023-01-09T00:53:35.168Z,5.66
2023-01-09T00:54:35.182Z,5.65
2023-01-09T00:55:35.194Z,5.68
2023-01-09T00:56:35.163Z,5.72
2023-01-09T00:57:35.126Z,5.71
2023-01-09T00:58:35.136Z,5.72
2023-01-09T00:59:35.114Z,5.75
2023-01-09T01:00:35.134Z,5.82
2023-01-09T01:01:35.246Z,5.83
2023-01-09T01:02:35.080Z,5.84
2023-01-09T01:03:35.079Z,5.80
2023-01-09T01:04:35.054Z,5.73
2023-01-09T01:05:35.111Z,5.73
2023-01-09T01:06:35.029Z,5.75
2023-01-09T01:07:35.057Z,5.76
2023-01-09T01:08:35.020Z,5.69
2023-01-09T01:09:34.998Z,5.65
2023-01-09T01:10:35.011Z,5.62
2023-01-09T01:11:34.972Z,5.59
2023-01-09T01:12:34.980Z,5.57
2023-01-09T01:13:34.946Z,5.56
2023-01-09T01:14:34.947Z,5.59
2023-01-09T01:15:34.943Z,5.57
2023-01-09T01:16:34.955Z,5.51
2023-01-09T01:17:34.903Z,5.51
2023-01-09T01:18:34.904Z,5.48
2023-01-09T01:19:34.880Z,5.43
2023-01-09T01:20:34.899Z,5.38
2023-01-09T01:21:34.861Z,5.30
2023-01-09T01:22:34.840Z,5.29
2023-01-09T01:23:34.830Z,5.35
2023-01-09T01:24:34.809Z,5.32
2023-01-09T01:25:34.851Z,5.36
2023-01-09T01:26:34.794Z,5.44
2023-01-09T01:27:34.801Z,5.48
2023-01-09T01:28:34.767Z,5.48
2023-01-09T01:29:34.765Z,5.46
2023-01-09T01:30:34.806Z,5.51
2023-01-09T01:31:34.741Z,5.53
2023-01-09T01:32:34.755Z,5.62
2023-01-09T01:33:34.739Z,5.62
2023-01-09T01:34:34.710Z,5.65
2023-01-09T01:35:34.739Z,5.68
2023-01-09T01:36:34.681Z,5.69
2023-01-09T01:37:34.673Z,5.68
2023-01-09T01:38:34.672Z,5.68
2023-01-09T01:39:34.669Z,5.62
2023-01-09T01:40:34.681Z,5.61
2023-01-09T01:41:34.623Z,5.62
2023-01-09T01:42:34.606Z,5.61
2023-01-09T01:43:34.605Z,5.61
2023-01-09T01:44:34.609Z,5.54
2023-01-09T01:45:34.603Z,5.48
2023-01-09T01:46:34.569Z,5.53
2023-01-09T01:47:34.559Z,5.68
2023-01-09T01:48:34.527Z,5.68
2023-01-09T01:49:34.561Z,5.61
2023-01-09T01:50:34.587Z,5.56
2023-01-09T01:51:34.514Z,5.61
2023-01-09T01:52:34.521Z,5.64
2023-01-09T01:53:34.526Z,5.68
2023-01-09T01:54:34.496Z,5.64
2023-01-09T01:55:34.510Z,5.64
2023-01-09T01:56:34.468Z,5.68
2023-01-09T01:57:34.455Z,5.64
2023-01-09T01:58:34.434Z,5.57
2023-01-09T01:59:34.430Z,5.54
2023-01-09T02:00:34.455Z,5.59
2023-01-09T02:01:34.476Z,5.62
2023-01-09T02:02:34.413Z,5.64
2023-01-09T02:03:34.388Z,5.64
2023-01-09T02:04:34.375Z,5.62
2023-01-09T02:05:34.366Z,5.65
2023-01-09T02:06:34.395Z,5.65
2023-01-09T02:07:34.329Z,5.68
2023-01-09T02:08:34.334Z,5.65
2023-01-09T02:09:34.314Z,5.66
2023-01-09T02:10:34.294Z,5.75
2023-01-09T02:11:34.335Z,5.71
2023-01-09T02:12:34.281Z,5.76
2023-01-09T02:13:34.277Z,5.84
2023-01-09T02:14:34.260Z,5.79
2023-01-09T02:15:34.262Z,5.76
2023-01-09T02:16:34.279Z,5.76
2023-01-09T02:17:34.216Z,5.87
2023-01-09T02:18:34.202Z,5.89
2023-01-09T02:19:34.189Z,5.93
2023-01-09T02:20:34.174Z,5.91
2023-01-09T02:21:34.212Z,5.93
2023-01-09T02:22:34.154Z,5.91
2023-01-09T02:23:34.148Z,5.90
2023-01-09T02:24:34.156Z,5.86
2023-01-09T02:25:34.122Z,5.89
2023-01-09T02:26:34.147Z,5.90
2023-01-09T02:27:34.102Z,6.05
2023-01-09T02:28:34.094Z,6.08
2023-01-09T02:29:34.083Z,6.09
2023-01-09T02:30:34.087Z,6.05
2023-01-09T02:31:34.105Z,6.04
2023-01-09T02:32:34.048Z,6.07
2023-01-09T02:33:34.041Z,6.08
2023-01-09T02:34:34.013Z,6.02
2023-01-09T02:35:34.067Z,6.04
2023-01-09T02:36:34.039Z,6.05
2023-01-09T02:37:33.999Z,6.07
2023-01-09T02:38:33.986Z,6.11
2023-01-09T02:39:33.963Z,6.12
2023-01-09T02:40:33.962Z,6.11
2023-01-09T02:41:33.986Z,6.12
2023-01-09T02:42:33.927Z,6.14
2023-01-09T02:43:33.950Z,6.11
2023-01-09T02:44:33.910Z,6.09
2023-01-09T02:45:33.915Z,6.14
2023-01-09T02:46:33.927Z,6.14
2023-01-09T02:47:33.876Z,6.14
2023-01-09T02:48:33.867Z,6.12
2023-01-09T02:49:33.858Z,6.11
2023-01-09T02:50:33.838Z,6.14
2023-01-09T02:51:33.871Z,6.22
2023-01-09T02:52:33.823Z,6.30
2023-01-09T02:53:33.794Z,6.36
2023-01-09T02:54:33.790Z,6.41
2023-01-09T02:55:33.777Z,6.42
2023-01-09T02:56:33.812Z,6.44
2023-01-09T02:57:33.784Z,6.51
2023-01-09T02:58:33.752Z,6.48
2023-01-09T02:59:33.759Z,6.48
2023-01-09T03:00:33.719Z,6.46
2023-01-09T03:01:33.873Z,6.48
2023-01-09T03:02:33.728Z,6.46
2023-01-09T03:03:33.701Z,6.46
2023-01-09T03:04:33.684Z,6.51
2023-01-09T03:05:33.687Z,6.52
2023-01-09T03:06:33.683Z,6.56
2023-01-09T03:07:33.638Z,6.56
2023-01-09T03:08:33.633Z,6.52
2023-01-09T03:09:33.692Z,6.52
2023-01-09T03:10:33.619Z,6.62
2023-01-09T03:11:33.650Z,6.64
2023-01-09T03:12:33.590Z,6.63
2023-01-09T03:13:33.572Z,6.62
2023-01-09T03:14:33.572Z,6.63
2023-01-09T03:15:33.575Z,6.69
2023-01-09T03:16:33.590Z,6.69
2023-01-09T03:17:33.562Z,6.74
2023-01-09T03:18:33.521Z,6.78
2023-01-09T03:19:33.519Z,6.84
2023-01-09T03:20:33.513Z,6.84
2023-01-09T03:21:33.559Z,6.84
2023-01-09T03:22:33.490Z,6.78
2023-01-09T03:23:33.473Z,6.77
2023-01-09T03:24:33.465Z,6.81
2023-01-09T03:25:33.446Z,6.79
2023-01-09T03:26:33.453Z,6.82
2023-01-09T03:27:33.428Z,6.81
2023-01-09T03:28:33.404Z,6.79
2023-01-09T03:29:33.395Z,6.84
2023-01-09T03:30:33.404Z,6.82
2023-01-09T03:31:33.473Z,6.81
2023-01-09T03:32:33.370Z,6.81
2023-01-09T03:33:33.354Z,6.82
2023-01-09T03:34:33.337Z,6.81
2023-01-09T03:35:33.356Z,6.85
2023-01-09T03:36:33.363Z,6.84
2023-01-09T03:37:33.309Z,6.96
2023-01-09T03:38:33.301Z,6.93
2023-01-09T03:39:33.309Z,6.88
2023-01-09T03:40:33.261Z,6.85
2023-01-09T03:41:33.302Z,6.84
2023-01-09T03:42:33.259Z,6.81
2023-01-09T03:43:33.245Z,6.81
2023-01-09T03:44:33.224Z,6.85
2023-01-09T03:45:33.256Z,6.87
2023-01-09T03:46:33.235Z,6.82
2023-01-09T03:47:33.210Z,6.88
2023-01-09T03:48:33.196Z,6.87
2023-01-09T03:49:33.187Z,6.84
2023-01-09T03:50:33.171Z,6.81
2023-01-09T03:51:33.206Z,6.81
2023-01-09T03:52:33.159Z,6.77
2023-01-09T03:53:33.161Z,6.78
2023-01-09T03:54:33.130Z,6.75
2023-01-09T03:55:33.113Z,6.77
2023-01-09T03:56:33.145Z,6.77
2023-01-09T03:57:33.095Z,6.77
2023-01-09T03:58:33.081Z,6.77
2023-01-09T03:59:33.067Z,6.78
2023-01-09T04:00:33.055Z,6.79
2023-01-09T04:01:33.190Z,6.79
2023-01-09T04:02:33.021Z,6.79
2023-01-09T04:03:33.085Z,6.81
2023-01-09T04:04:33.020Z,6.79
2023-01-09T04:05:33.003Z,6.78
2023-01-09T04:06:33.029Z,6.75
2023-01-09T04:07:33.019Z,6.78
2023-01-09T04:08:32.961Z,6.81
2023-01-09T04:09:32.957Z,6.79
2023-01-09T04:10:32.957Z,6.79
2023-01-09T04:11:32.974Z,6.79
2023-01-09T04:12:32.936Z,6.79
2023-01-09T04:13:32.921Z,6.79
2023-01-09T04:14:32.900Z,6.78
2023-01-09T04:15:32.897Z,6.72
2023-01-09T04:16:32.993Z,6.72
2023-01-09T04:17:32.873Z,6.72
2023-01-09T04:18:32.868Z,6.69
2023-01-09T04:19:32.840Z,6.67
2023-01-09T04:20:32.840Z,6.63
2023-01-09T04:21:32.856Z,6.69
2023-01-09T04:22:32.826Z,6.72
2023-01-09T04:23:32.810Z,6.70
2023-01-09T04:24:32.784Z,6.69
2023-01-09T04:25:32.794Z,6.67
2023-01-09T04:26:32.769Z,6.64
2023-01-09T04:27:32.804Z,6.62
2023-01-09T04:28:32.756Z,6.60
2023-01-09T04:29:32.729Z,6.60
2023-01-09T04:30:32.727Z,6.60
2023-01-09T04:31:32.779Z,6.57
2023-01-09T04:32:32.743Z,6.54
2023-01-09T04:33:32.682Z,6.52
2023-01-09T04:34:32.677Z,6.52
2023-01-09T04:35:32.668Z,6.52
2023-01-09T04:36:32.649Z,6.49
2023-01-09T04:37:32.707Z,6.46
2023-01-09T04:38:32.625Z,6.42
2023-01-09T04:39:32.633Z,6.46
2023-01-09T04:40:32.611Z,6.44
2023-01-09T04:41:32.599Z,6.44
2023-01-09T04:42:32.611Z,6.41
2023-01-09T04:43:32.587Z,6.44
2023-01-09T04:44:32.569Z,6.42
2023-01-09T04:45:32.576Z,6.42
2023-01-09T04:46:32.542Z,6.42
2023-01-09T04:47:32.563Z,6.42
2023-01-09T04:48:32.511Z,6.39
2023-01-09T04:49:32.515Z,6.41
2023-01-09T04:50:32.512Z,6.41
2023-01-09T04:51:32.500Z,6.41
2023-01-09T04:52:32.515Z,6.38
2023-01-09T04:53:32.504Z,6.38
2023-01-09T04:54:32.466Z,6.39
2023-01-09T04:55:32.457Z,6.45
2023-01-09T04:56:32.442Z,6.41
2023-01-09T04:57:32.474Z,6.44
2023-01-09T04:58:32.424Z,6.44
2023-01-09T04:59:32.420Z,6.44
2023-01-09T05:00:32.386Z,6.44
2023-01-09T05:01:32.479Z,6.45
2023-01-09T05:02:32.431Z,6.44
2023-01-09T05:03:32.354Z,6.46
2023-01-09T05:04:32.429Z,6.44
2023-01-09T05:05:32.322Z,6.42
2023-01-09T05:06:32.340Z,6.42
2023-01-09T05:07:32.317Z,6.42
2023-01-09T05:08:32.338Z,6.42
2023-01-09T05:09:32.303Z,6.39
2023-01-09T05:10:32.277Z,6.36
2023-01-09T05:11:32.290Z,6.33
2023-01-09T05:12:32.262Z,6.28
2023-01-09T05:13:32.289Z,6.30
2023-01-09T05:14:32.233Z,6.31
2023-01-09T05:15:32.241Z,6.30
2023-01-09T05:16:32.256Z,6.28
2023-01-09T05:17:32.205Z,6.26
2023-01-09T05:18:32.251Z,6.20
2023-01-09T05:19:32.185Z,6.22
2023-01-09T05:20:32.180Z,6.22
2023-01-09T05:21:32.177Z,6.20
2023-01-09T05:22:32.158Z,6.20
2023-01-09T05:23:32.180Z,6.22
2023-01-09T05:24:32.127Z,6.19
2023-01-09T05:25:32.128Z,6.16
2023-01-09T05:26:32.087Z,6.14
2023-01-09T05:27:32.085Z,6.12
2023-01-09T05:28:32.126Z,6.12
2023-01-09T05:29:32.071Z,6.11
2023-01-09T05:30:32.069Z,6.11
2023-01-09T05:31:32.088Z,6.08
2023-01-09T05:32:32.030Z,6.07
2023-01-09T05:33:32.067Z,6.04
2023-01-09T05:34:31.995Z,6.01
2023-01-09T05:35:31.979Z,6.04
2023-01-09T05:36:31.992Z,6.01
2023-01-09T05:37:31.982Z,6.05
2023-01-09T05:38:32.004Z,6.07
2023-01-09T05:39:31.997Z,6.05
2023-01-09T05:40:39.469Z,6.05
2023-01-09T05:41:32.931Z,6.04
2023-01-09T05:42:31.928Z,6.01
2023-01-09T05:43:31.948Z,5.99
2023-01-09T05:44:31.905Z,6.02
2023-01-09T05:45:31.924Z,6.02
2023-01-09T05:46:31.884Z,6.02
2023-01-09T05:47:31.876Z,6.02
2023-01-09T05:48:31.904Z,6.02
2023-01-09T05:49:31.851Z,6.02
2023-01-09T05:50:31.865Z,6.02
2023-01-09T05:51:31.830Z,6.02
2023-01-09T05:52:31.820Z,6.02
2023-01-09T05:53:31.796Z,6.04
2023-01-09T05:54:31.830Z,6.04
2023-01-09T05:55:31.782Z,6.07
2023-01-09T05:56:31.773Z,6.04
2023-01-09T05:57:31.762Z,6.02
2023-01-09T05:58:31.743Z,6.02
2023-01-09T05:59:31.751Z,6.04
2023-01-09T06:00:31.726Z,6.02
2023-01-09T06:01:31.814Z,6.04
2023-01-09T06:02:31.850Z,6.01
2023-01-09T06:03:31.734Z,5.99
2023-01-09T06:04:31.715Z,6.01
2023-01-09T06:05:31.644Z,6.01
2023-01-09T06:06:31.631Z,5.99
2023-01-09T06:07:31.641Z,6.01
2023-01-09T06:08:31.627Z,6.04
2023-01-09T06:09:31.675Z,6.04
2023-01-09T06:10:31.622Z,6.01
2023-01-09T06:11:31.593Z,5.97
2023-01-09T06:12:31.621Z,6.02
2023-01-09T06:13:31.573Z,6.04
2023-01-09T06:14:31.606Z,6.02
2023-01-09T06:15:31.563Z,6.02
2023-01-09T06:16:31.527Z,5.99
2023-01-09T06:17:31.536Z,6.04
2023-01-09T06:18:31.529Z,6.02
2023-01-09T06:19:31.539Z,6.02
2023-01-09T06:20:31.556Z,6.04
2023-01-09T06:21:31.491Z,6.02
2023-01-09T06:22:31.479Z,5.99
2023-01-09T06:23:31.463Z,6.01
2023-01-09T06:24:31.545Z,6.01
2023-01-09T06:25:31.457Z,6.01
2023-01-09T06:26:31.451Z,6.01
2023-01-09T06:27:31.441Z,5.99
2023-01-09T06:28:31.420Z,6.01
2023-01-09T06:29:31.399Z,5.99
2023-01-09T06:30:31.449Z,6.01
2023-01-09T06:31:31.521Z,6.02
2023-01-09T06:32:31.374Z,5.99
2023-01-09T06:33:31.373Z,6.02
2023-01-09T06:34:31.358Z,6.02
2023-01-09T06:35:31.384Z,6.01
2023-01-09T06:36:31.335Z,6.02
2023-01-09T06:37:31.300Z,6.05
2023-01-09T06:38:31.321Z,6.04
2023-01-09T06:39:31.320Z,6.05
2023-01-09T06:40:31.357Z,6.08
2023-01-09T06:41:31.251Z,6.09
2023-01-09T06:42:31.268Z,6.08
2023-01-09T06:43:31.244Z,6.11
2023-01-09T06:44:31.240Z,6.11
2023-01-09T06:45:31.259Z,6.12
2023-01-09T06:46:31.248Z,6.11
2023-01-09T06:47:31.216Z,6.16
2023-01-09T06:48:31.197Z,6.17
2023-01-09T06:49:31.176Z,6.19
2023-01-09T06:50:31.192Z,6.19
2023-01-09T06:51:31.155Z,6.17
2023-01-09T06:52:31.174Z,6.12
2023-01-09T06:53:31.146Z,6.14
2023-01-09T06:54:31.095Z,6.11
2023-01-09T06:55:31.153Z,6.11
2023-01-09T06:56:31.124Z,6.12
2023-01-09T06:57:31.085Z,6.12
2023-01-09T06:58:31.103Z,6.12
2023-01-09T06:59:31.050Z,6.14
2023-01-09T07:00:31.080Z,6.09
2023-01-09T07:01:31.198Z,6.09
2023-01-09T07:02:31.049Z,6.07
2023-01-09T07:03:33.036Z,6.07
2023-01-09T07:04:30.992Z,6.05
2023-01-09T07:05:31.005Z,6.05
2023-01-09T07:06:30.995Z,6.02
2023-01-09T07:07:30.982Z,6.01
2023-01-09T07:08:30.971Z,5.99
2023-01-09T07:09:30.952Z,5.97
2023-01-09T07:10:30.980Z,5.94
2023-01-09T07:11:30.925Z,5.94
2023-01-09T07:12:30.919Z,5.91
2023-01-09T07:13:30.913Z,5.93
2023-01-09T07:14:30.888Z,5.93
2023-01-09T07:15:30.911Z,5.91
2023-01-09T07:16:30.876Z,5.91
2023-01-09T07:17:30.870Z,5.91
2023-01-09T07:18:30.840Z,5.89
2023-01-09T07:19:30.833Z,5.89
2023-01-09T07:20:30.860Z,5.87
2023-01-09T07:21:32.704Z,5.89
2023-01-09T07:22:30.832Z,5.89
2023-01-09T07:23:30.787Z,5.89
2023-01-09T07:24:30.797Z,5.87
2023-01-09T07:25:30.811Z,5.87
2023-01-09T07:26:30.768Z,5.86
2023-01-09T07:27:30.738Z,5.87
2023-01-09T07:28:30.729Z,5.86
2023-01-09T07:29:30.710Z,5.84
2023-01-09T07:30:30.751Z,5.87
2023-01-09T07:31:30.733Z,5.87
2023-01-09T07:32:30.707Z,5.87
2023-01-09T07:33:30.666Z,5.89
2023-01-09T07:34:30.662Z,5.90
2023-01-09T07:35:30.674Z,5.89
2023-01-09T07:36:30.683Z,5.87
2023-01-09T07:37:30.650Z,5.89
2023-01-09T07:38:30.630Z,5.87
2023-01-09T07:39:30.606Z,5.89
2023-01-09T07:40:30.647Z,5.87
2023-01-09T07:41:30.612Z,5.90
2023-01-09T07:42:30.593Z,5.89
2023-01-09T07:43:30.569Z,5.89
2023-01-09T07:44:30.567Z,5.91
2023-01-09T07:45:30.578Z,5.94
2023-01-09T07:46:30.565Z,5.93
2023-01-09T07:47:30.515Z,5.93
2023-01-09T07:48:30.528Z,5.93
2023-01-09T07:49:30.492Z,5.91
2023-01-09T07:50:30.528Z,5.91
2023-01-09T07:51:30.480Z,5.94
2023-01-09T07:52:30.481Z,5.98
2023-01-09T07:53:30.475Z,5.99
2023-01-09T07:54:30.457Z,5.98
2023-01-09T07:55:30.474Z,5.91
2023-01-09T07:56:30.416Z,5.91
2023-01-09T07:57:30.413Z,5.91
2023-01-09T07:58:30.418Z,5.91
2023-01-09T07:59:30.401Z,6.07
2023-01-09T08:00:32.419Z,6.07
2023-01-09T08:01:30.449Z,6.08
2023-01-09T08:02:30.376Z,6.05
2023-01-09T08:03:30.329Z,6.08
2023-01-09T08:04:30.312Z,6.05
2023-01-09T08:05:30.357Z,6.08
2023-01-09T08:06:30.327Z,6.08
2023-01-09T08:07:30.303Z,6.12
2023-01-09T08:08:30.293Z,6.14
2023-01-09T08:09:30.279Z,6.11
2023-01-09T08:10:30.304Z,6.16
2023-01-09T08:11:30.255Z,6.12
2023-01-09T08:12:30.269Z,6.09
2023-01-09T08:13:30.245Z,6.14
2023-01-09T08:14:30.228Z,6.09
2023-01-09T08:15:30.230Z,6.08
2023-01-09T08:16:30.196Z,6.12
2023-01-09T08:17:30.193Z,6.11
2023-01-09T08:18:30.171Z,6.09
2023-01-09T08:19:30.188Z,6.11
2023-01-09T08:20:30.210Z,6.09
2023-01-09T08:21:30.160Z,6.09
2023-01-09T08:22:30.137Z,6.08
2023-01-09T08:23:30.111Z,6.09
2023-01-09T08:24:30.123Z,6.09
2023-01-09T08:25:30.144Z,6.11
2023-01-09T08:26:30.114Z,6.12
2023-01-09T08:27:30.070Z,6.12
2023-01-09T08:28:30.067Z,6.12
2023-01-09T08:29:30.035Z,6.49
2023-01-09T08:30:30.081Z,6.49
2023-01-09T08:31:30.029Z,6.48
2023-01-09T08:32:30.014Z,6.49
2023-01-09T08:33:30.007Z,6.51
2023-01-09T08:34:30.005Z,6.51
2023-01-09T08:35:30.024Z,6.48
2023-01-09T08:36:29.960Z,6.48
2023-01-09T08:37:29.976Z,6.48
2023-01-09T08:38:30.029Z,6.48
2023-01-09T08:39:29.933Z,6.45
2023-01-09T08:40:29.971Z,6.45
2023-01-09T08:41:29.910Z,6.48
2023-01-09T08:42:29.923Z,6.49
2023-01-09T08:43:29.913Z,6.52
2023-01-09T08:44:29.903Z,6.54
2023-01-09T08:45:29.923Z,6.56
2023-01-09T08:46:29.888Z,6.57
2023-01-09T08:47:29.856Z,6.42
2023-01-09T08:48:29.829Z,6.54
2023-01-09T08:49:29.844Z,6.62
2023-01-09T08:50:29.871Z,6.64
2023-01-09T08:51:29.826Z,6.67
2023-01-09T08:52:29.798Z,6.67
2023-01-09T08:53:29.809Z,6.70
2023-01-09T08:54:31.268Z,6.67
2023-01-09T08:55:29.787Z,6.67
2023-01-09T08:56:29.775Z,6.70
2023-01-09T08:57:29.743Z,6.72
2023-01-09T08:58:29.747Z,6.74
2023-01-09T08:59:29.726Z,6.69
2023-01-09T09:00:29.759Z,6.72
2023-01-09T09:01:29.745Z,6.79
2023-01-09T09:02:29.697Z,6.77
2023-01-09T09:03:29.676Z,6.72
2023-01-09T09:04:29.674Z,6.74
2023-01-09T09:05:29.673Z,6.78
2023-01-09T09:06:29.631Z,6.77
2023-01-09T09:07:29.640Z,6.77
2023-01-09T09:08:29.617Z,6.75
2023-01-09T09:09:29.634Z,6.77
2023-01-09T09:10:29.632Z,6.74
2023-01-09T09:11:29.583Z,6.72
2023-01-09T09:12:29.571Z,6.72
2023-01-09T09:13:29.557Z,6.75
2023-01-09T09:14:29.559Z,6.81
2023-01-09T09:15:29.579Z,6.82
2023-01-09T09:16:29.596Z,6.82
2023-01-09T09:17:29.529Z,6.89
2023-01-09T09:18:29.493Z,6.95
2023-01-09T09:19:29.502Z,7.00
2023-01-09T09:20:29.534Z,7.00
2023-01-09T09:21:29.453Z,7.00
2023-01-09T09:22:29.466Z,7.00
2023-01-09T09:23:29.463Z,7.03
2023-01-09T09:24:29.441Z,7.03
2023-01-09T09:25:29.435Z,7.06
2023-01-09T09:26:29.421Z,7.11
2023-01-09T09:27:29.394Z,7.15
2023-01-09T09:28:29.397Z,7.18
2023-01-09T09:29:29.391Z,7.21
2023-01-09T09:30:29.400Z,7.28
2023-01-09T09:31:29.388Z,7.31
2023-01-09T09:32:29.323Z,7.36
2023-01-09T09:33:29.325Z,7.40
2023-01-09T09:34:29.303Z,7.45
2023-01-09T09:35:29.359Z,7.47
2023-01-09T09:36:29.315Z,7.42
2023-01-09T09:37:29.280Z,7.48
2023-01-09T09:38:29.273Z,7.58
2023-01-09T09:39:29.274Z,7.70
2023-01-09T09:40:29.295Z,7.77
2023-01-09T09:41:29.290Z,7.77
2023-01-09T09:42:29.240Z,7.87
2023-01-09T09:43:29.219Z,7.95
2023-01-09T09:44:29.208Z,7.95
2023-01-09T09:45:29.243Z,7.90
2023-01-09T09:46:29.226Z,7.90
2023-01-09T09:47:29.188Z,7.61
2023-01-09T09:48:29.189Z,7.56
2023-01-09T09:49:29.178Z,7.51
2023-01-09T09:50:29.146Z,7.51
2023-01-09T09:51:29.176Z,7.57
2023-01-09T09:52:29.109Z,7.61
2023-01-09T09:53:29.101Z,7.61
2023-01-09T09:54:29.099Z,7.51
2023-01-09T09:55:29.090Z,7.48
2023-01-09T09:56:29.126Z,7.50
2023-01-09T09:57:29.064Z,7.57
2023-01-09T09:58:29.031Z,7.58
2023-01-09T09:59:29.028Z,7.67
2023-01-09T10:00:29.051Z,7.63
2023-01-09T10:01:29.083Z,7.67
2023-01-09T10:02:29.052Z,7.63
2023-01-09T10:03:33.932Z,7.57
2023-01-09T10:04:29.968Z,7.56
2023-01-09T10:05:28.966Z,7.56
2023-01-09T10:06:29.021Z,7.51
2023-01-09T10:07:28.961Z,7.50
2023-01-09T10:08:28.930Z,7.54
2023-01-09T10:09:28.944Z,7.57
2023-01-09T10:10:29.027Z,7.60
2023-01-09T10:11:28.939Z,7.61
2023-01-09T10:12:28.919Z,7.60
2023-01-09T10:13:29.969Z,7.58
2023-01-09T10:14:28.891Z,7.61
2023-01-09T10:15:28.850Z,7.66
2023-01-09T10:16:28.887Z,7.61
2023-01-09T10:17:28.849Z,7.66
2023-01-09T10:18:28.815Z,7.66
2023-01-09T10:19:28.827Z,7.67
2023-01-09T10:20:28.799Z,7.73
2023-01-09T10:21:28.940Z,7.70
2023-01-09T10:22:28.774Z,7.66
2023-01-09T10:23:28.752Z,7.73
2023-01-09T10:24:28.766Z,7.77
2023-01-09T10:25:28.781Z,7.82
2023-01-09T10:26:28.751Z,7.79
2023-01-09T10:27:28.725Z,7.80
2023-01-09T10:28:28.719Z,7.82
2023-01-09T10:29:28.698Z,7.83
2023-01-09T10:30:28.732Z,7.85
2023-01-09T10:31:28.710Z,7.88
2023-01-09T10:32:28.693Z,7.88
2023-01-09T10:33:28.664Z,7.94
2023-01-09T10:34:28.649Z,7.98
2023-01-09T10:35:36.125Z,7.94
2023-01-09T10:36:29.614Z,8.00
2023-01-09T10:37:28.617Z,8.06
2023-01-09T10:38:28.632Z,8.09
2023-01-09T10:39:28.594Z,8.05
2023-01-09T10:40:28.578Z,8.16
2023-01-09T10:41:28.575Z,8.19
2023-01-09T10:42:28.595Z,8.19
2023-01-09T10:43:28.542Z,8.23
2023-01-09T10:44:28.529Z,8.24
2023-01-09T10:45:28.518Z,8.28
2023-01-09T10:46:28.578Z,8.36
2023-01-09T10:47:28.545Z,8.41
2023-01-09T10:48:28.467Z,8.46
2023-01-09T10:49:28.484Z,8.53
2023-01-09T10:50:28.463Z,8.58
2023-01-09T10:51:28.469Z,8.73
2023-01-09T10:52:28.456Z,8.82
2023-01-09T10:53:28.510Z,8.79
2023-01-09T10:54:28.429Z,8.85
2023-01-09T10:55:28.419Z,8.89
2023-01-09T10:56:28.415Z,8.92
2023-01-09T10:57:28.438Z,8.92
2023-01-09T10:58:28.371Z,8.94
2023-01-09T10:59:28.357Z,8.81
2023-01-09T11:00:28.355Z,8.92
2023-01-09T11:01:28.339Z,9.00
2023-01-09T11:02:28.358Z,8.99
2023-01-09T11:03:28.441Z,8.95
2023-01-09T11:04:28.291Z,8.88
2023-01-09T11:05:28.420Z,8.89
2023-01-09T11:06:28.273Z,8.91
2023-01-09T11:07:28.281Z,8.89
2023-01-09T11:08:28.283Z,8.85
2023-01-09T11:09:28.240Z,8.91
2023-01-09T11:10:28.236Z,8.92
2023-01-09T11:11:28.227Z,8.94
2023-01-09T11:12:28.208Z,8.95
2023-01-09T11:13:28.231Z,8.97
2023-01-09T11:14:28.185Z,8.89
2023-01-09T11:15:28.205Z,8.99
2023-01-09T11:16:28.264Z,9.03
2023-01-09T11:17:28.175Z,9.06
2023-01-09T11:18:28.192Z,9.04
2023-01-09T11:19:28.131Z,9.08
2023-01-09T11:20:28.130Z,9.02
2023-01-09T11:21:28.107Z,8.99
2023-01-09T11:22:28.096Z,8.95
2023-01-09T11:23:28.130Z,9.03
2023-01-09T11:24:28.106Z,9.00
2023-01-09T11:25:28.077Z,9.00
2023-01-09T11:26:28.092Z,9.03
2023-01-09T11:27:28.087Z,9.04
2023-01-09T11:28:28.060Z,9.03
2023-01-09T11:29:28.011Z,8.97
2023-01-09T11:30:28.043Z,8.95
2023-01-09T11:31:28.090Z,8.97
2023-01-09T11:32:27.965Z,9.02
2023-01-09T11:33:28.015Z,9.00
2023-01-09T11:34:27.967Z,9.02
2023-01-09T11:35:27.988Z,9.03
2023-01-09T11:36:27.943Z,9.11
2023-01-09T11:37:27.937Z,9.19
2023-01-09T11:38:27.991Z,9.21
2023-01-09T11:39:27.900Z,9.19
2023-01-09T11:40:27.898Z,9.25
2023-01-09T11:41:27.901Z,9.26
2023-01-09T11:42:27.859Z,9.23
2023-01-09T11:43:27.947Z,9.26
2023-01-09T11:44:27.825Z,9.21
2023-01-09T11:45:27.858Z,9.16
2023-01-09T11:46:27.845Z,9.14
2023-01-09T11:47:27.840Z,9.18
2023-01-09T11:48:27.847Z,9.14
2023-01-09T11:49:27.825Z,9.18
2023-01-09T11:50:27.829Z,9.13
2023-01-09T11:51:27.769Z,9.14
2023-01-09T11:52:27.790Z,9.18
2023-01-09T11:53:27.770Z,9.19
2023-01-09T11:54:27.765Z,9.18
2023-01-09T11:55:34.852Z,9.19
2023-01-09T11:56:28.718Z,9.21
2023-01-09T11:57:27.699Z,9.21
2023-01-09T11:58:27.668Z,9.19
2023-01-09T11:59:27.720Z,9.26
2023-01-09T12:00:27.655Z,9.32
2023-01-09T12:01:27.640Z,9.37
2023-01-09T12:02:27.631Z,9.39
2023-01-09T12:03:27.763Z,9.34
2023-01-09T12:04:27.688Z,9.31
2023-01-09T12:05:27.628Z,9.31
2023-01-09T12:06:27.611Z,9.29
2023-01-09T12:07:27.587Z,9.34
2023-01-09T12:08:27.593Z,9.32
2023-01-09T12:09:27.632Z,9.34
2023-01-09T12:10:27.570Z,9.34
2023-01-09T12:11:27.551Z,9.32
2023-01-09T12:12:27.538Z,9.34
2023-01-09T12:13:27.546Z,9.36
2023-01-09T12:14:27.544Z,9.39
2023-01-09T12:15:27.503Z,9.50
2023-01-09T12:16:27.580Z,9.55
2023-01-09T12:17:27.488Z,9.59
2023-01-09T12:18:27.470Z,9.74
2023-01-09T12:19:27.497Z,9.83
2023-01-09T12:20:27.430Z,9.86
2023-01-09T12:21:27.455Z,9.89
2023-01-09T12:22:27.435Z,9.79
2023-01-09T12:23:27.404Z,9.82
2023-01-09T12:24:27.427Z,9.84
2023-01-09T12:25:27.396Z,9.80
2023-01-09T12:26:27.384Z,9.80
2023-01-09T12:27:27.364Z,9.74
2023-01-09T12:28:27.346Z,9.72
2023-01-09T12:29:27.378Z,9.69
2023-01-09T12:30:27.319Z,9.65
2023-01-09T12:31:27.341Z,9.56
2023-01-09T12:32:27.316Z,9.56
2023-01-09T12:33:27.315Z,9.51
2023-01-09T12:34:27.309Z,9.50
2023-01-09T12:35:27.284Z,9.48
2023-01-09T12:36:27.273Z,9.44
2023-01-09T12:37:27.266Z,9.48
2023-01-09T12:38:27.255Z,9.51
2023-01-09T12:39:27.277Z,9.58
2023-01-09T12:40:27.232Z,9.59
2023-01-09T12:41:27.203Z,9.59
2023-01-09T12:42:27.192Z,9.62
2023-01-09T12:43:27.186Z,9.68
2023-01-09T12:44:35.671Z,9.69
2023-01-09T12:45:28.228Z,9.82
2023-01-09T12:46:27.134Z,10.04
2023-01-09T12:47:27.178Z,10.74
2023-01-09T12:48:27.137Z,11.68
2023-01-09T12:49:27.169Z,12.45
2023-01-09T12:50:27.111Z,12.97
2023-01-09T12:51:27.092Z,13.09
2023-01-09T12:52:27.082Z,13.33
2023-01-09T12:53:27.085Z,14.12
2023-01-09T12:54:27.092Z,14.47
2023-01-09T12:55:27.051Z,14.91
2023-01-09T12:56:27.039Z,14.41
2023-01-09T12:57:27.018Z,13.85
2023-01-09T12:58:27.035Z,13.33
2023-01-09T12:59:27.029Z,13.05
2023-01-09T13:00:26.976Z,12.49
2023-01-09T13:01:27.009Z,12.03
2023-01-09T13:02:27.022Z,11.78
2023-01-09T13:03:26.939Z,11.32
2023-01-09T13:04:26.983Z,10.99
2023-01-09T13:05:26.952Z,10.99
2023-01-09T13:06:26.911Z,10.93
2023-01-09T13:07:26.938Z,10.97
2023-01-09T13:08:26.903Z,10.86
2023-01-09T13:09:26.954Z,10.79
2023-01-09T13:10:26.862Z,10.60
2023-01-09T13:11:26.879Z,10.40
2023-01-09T13:12:26.858Z,10.41
2023-01-09T13:13:26.854Z,10.40
2023-01-09T13:14:26.879Z,10.54
2023-01-09T13:15:26.857Z,10.84
2023-01-09T13:16:26.829Z,10.75
2023-01-09T13:17:26.820Z,10.71